createdAt,value
2022-10-12T00:02:07.249Z,50.70
2022-10-12T00:04:33.863Z,51.49
2022-10-12T00:07:00.361Z,51.07
2022-10-12T00:09:26.846Z,51.13
2022-10-12T00:11:53.447Z,51.36
2022-10-12T00:14:19.986Z,51.43
2022-10-12T00:16:46.466Z,51.54
2022-10-12T00:19:13.386Z,51.29
2022-10-12T00:21:40.162Z,51.82
2022-10-12T00:24:06.892Z,51.31
2022-10-12T00:26:33.739Z,51.59
2022-10-12T00:29:01.508Z,51.64
2022-10-12T00:31:28.921Z,51.48
2022-10-12T00:33:56.177Z,51.49
2022-10-12T00:36:25.829Z,51.32
2022-10-12T00:38:53.889Z,51.73
2022-10-12T00:41:24.063Z,51.40
2022-10-12T00:43:56.829Z,51.58
2022-10-12T00:46:24.565Z,51.18
2022-10-12T00:48:55.322Z,51.92
2022-10-12T00:51:22.676Z,52.77
2022-10-12T00:53:54.994Z,52.03
2022-10-12T00:56:24.624Z,52.11
2022-10-12T00:58:52.033Z,52.00
2022-10-12T01:01:18.762Z,51.50
2022-10-12T01:03:45.578Z,51.83
2022-10-12T01:06:12.149Z,51.55
2022-10-12T01:08:38.892Z,51.42
2022-10-12T01:11:06.279Z,51.23
2022-10-12T01:13:32.893Z,51.17
2022-10-12T01:16:25.028Z,51.45
2022-10-12T01:19:12.825Z,52.59
2022-10-12T01:21:44.666Z,52.10
2022-10-12T01:25:02.278Z,52.25
2022-10-12T01:27:50.386Z,52.25
2022-10-12T01:30:33.660Z,52.74
2022-10-12T01:33:00.041Z,51.83
2022-10-12T01:35:54.702Z,51.94
2022-10-12T01:38:44.222Z,52.08
2022-10-12T01:41:30.387Z,51.71
2022-10-12T01:43:57.173Z,51.38
2022-10-12T01:46:23.576Z,50.86
2022-10-12T01:48:53.056Z,51.28
2022-10-12T01:51:27.300Z,51.56
2022-10-12T01:54:49.306Z,51.43
2022-10-12T01:57:46.572Z,51.33
2022-10-12T02:00:15.548Z,51.96
2022-10-12T02:02:59.415Z,51.26
2022-10-12T02:05:39.505Z,51.12
2022-10-12T02:08:11.654Z,51.21
2022-10-12T02:11:08.373Z,51.13
2022-10-12T02:13:39.079Z,50.95
2022-10-12T02:16:10.822Z,50.95
2022-10-12T02:18:40.316Z,51.28
2022-10-12T02:21:07.795Z,51.13
2022-10-12T02:23:35.122Z,51.00
2022-10-12T02:26:01.995Z,51.08
2022-10-12T02:28:29.798Z,50.72
2022-10-12T02:31:04.205Z,50.84
2022-10-12T02:33:36.832Z,50.51
2022-10-12T02:36:09.124Z,51.10
2022-10-12T02:38:39.719Z,52.04
2022-10-12T02:41:09.744Z,52.04
2022-10-12T02:43:43.311Z,52.77
2022-10-12T02:46:11.353Z,52.44
2022-10-12T02:48:41.798Z,52.77
2022-10-12T02:51:09.640Z,52.31
2022-10-12T02:53:36.213Z,51.94
2022-10-12T02:56:09.881Z,51.97
2022-10-12T02:58:36.715Z,52.00
2022-10-12T03:01:03.282Z,51.48
2022-10-12T03:03:29.800Z,51.66
2022-10-12T03:05:56.344Z,51.86
2022-10-12T03:08:22.855Z,51.54
2022-10-12T03:10:49.398Z,51.05
2022-10-12T03:13:15.832Z,51.40
2022-10-12T03:15:42.519Z,52.56
2022-10-12T03:18:09.018Z,51.70
2022-10-12T03:20:35.454Z,51.59
2022-10-12T03:23:02.110Z,51.58
2022-10-12T03:25:28.700Z,51.13
2022-10-12T03:27:55.162Z,51.04
2022-10-12T03:30:21.609Z,51.53
2022-10-12T03:32:48.475Z,51.05
2022-10-12T03:35:15.739Z,51.71
2022-10-12T03:37:42.218Z,51.63
2022-10-12T03:40:09.533Z,52.07
2022-10-12T03:42:35.997Z,51.91
2022-10-12T03:45:02.890Z,51.75
2022-10-12T03:47:29.511Z,51.92
2022-10-12T03:49:56.051Z,51.59
2022-10-12T03:52:22.584Z,51.89
2022-10-12T03:54:49.000Z,51.78
2022-10-12T03:57:15.686Z,53.04
2022-10-12T03:59:42.141Z,53.44
2022-10-12T04:02:11.061Z,53.04
2022-10-12T04:04:40.893Z,52.52
2022-10-12T04:07:07.766Z,52.09
2022-10-12T04:09:34.357Z,52.64
2022-10-12T04:12:00.808Z,52.27
2022-10-12T04:14:27.288Z,51.64
2022-10-12T04:16:54.541Z,51.15
2022-10-12T04:19:21.161Z,51.00
2022-10-12T04:21:47.921Z,50.68
2022-10-12T04:24:14.421Z,50.35
2022-10-12T04:26:40.983Z,50.58
2022-10-12T04:29:07.423Z,51.53
2022-10-12T04:31:33.935Z,51.61
2022-10-12T04:34:00.742Z,51.77
2022-10-12T04:36:27.501Z,51.63
2022-10-12T04:38:58.468Z,51.67
2022-10-12T04:41:27.257Z,51.34
2022-10-12T04:43:54.077Z,51.25
2022-10-12T04:46:20.570Z,50.96
2022-10-12T04:48:47.474Z,50.79
2022-10-12T04:51:13.934Z,50.60
2022-10-12T04:53:40.417Z,50.45
2022-10-12T04:56:07.295Z,51.01
2022-10-12T04:58:33.763Z,50.72
2022-10-12T05:01:00.337Z,50.59
2022-10-12T05:03:26.835Z,50.23
2022-10-12T05:05:53.291Z,50.03
2022-10-12T05:08:20.033Z,50.64
2022-10-12T05:10:47.089Z,51.05
2022-10-12T05:13:14.303Z,53.12
2022-10-12T05:15:44.316Z,52.65
2022-10-12T05:18:10.992Z,52.83
2022-10-12T05:20:37.835Z,52.59
2022-10-12T05:23:04.427Z,52.26
2022-10-12T05:25:31.081Z,52.25
2022-10-12T05:27:57.832Z,52.14
2022-10-12T05:30:24.424Z,51.44
2022-10-12T05:32:51.658Z,52.41
2022-10-12T05:35:18.138Z,52.79
2022-10-12T05:37:44.627Z,53.02
2022-10-12T05:40:11.431Z,54.26
2022-10-12T05:42:38.304Z,53.79
2022-10-12T05:45:05.742Z,53.01
2022-10-12T05:47:32.194Z,52.57
2022-10-12T05:49:58.728Z,51.93
2022-10-12T05:52:26.730Z,52.42
2022-10-12T05:54:53.224Z,51.79
2022-10-12T05:57:19.981Z,51.83
2022-10-12T05:59:46.546Z,51.07
2022-10-12T06:02:14.985Z,50.71
2022-10-12T06:04:41.938Z,50.32
2022-10-12T06:07:08.707Z,50.42
2022-10-12T06:09:38.770Z,50.35
2022-10-12T06:12:08.924Z,50.27
2022-10-12T06:14:35.987Z,50.63
2022-10-12T06:17:02.507Z,50.02
2022-10-12T06:19:28.922Z,50.58
2022-10-12T06:21:55.666Z,50.76
2022-10-12T06:24:22.348Z,50.82
2022-10-12T06:26:49.056Z,50.37
2022-10-12T06:29:15.514Z,50.39
2022-10-12T06:31:42.024Z,50.60
2022-10-12T06:34:08.738Z,50.44
2022-10-12T06:36:35.347Z,51.23
2022-10-12T06:39:01.878Z,52.30
2022-10-12T06:41:28.752Z,52.97
2022-10-12T06:43:55.211Z,53.55
2022-10-12T06:46:22.619Z,53.85
2022-10-12T06:48:49.150Z,52.99
2022-10-12T06:51:15.789Z,52.61
2022-10-12T06:53:42.659Z,52.24
2022-10-12T06:56:10.380Z,51.70
2022-10-12T06:58:36.996Z,51.32
2022-10-12T07:01:04.865Z,51.49
2022-10-12T07:03:32.367Z,51.47
2022-10-12T07:06:10.199Z,52.17
2022-10-12T07:08:36.802Z,52.11
2022-10-12T07:11:04.784Z,51.46
2022-10-12T07:13:41.277Z,50.63
2022-10-12T07:16:08.426Z,50.08
2022-10-12T07:18:35.281Z,49.91
2022-10-12T07:21:02.868Z,48.97
2022-10-12T07:23:33.867Z,48.66
2022-10-12T07:26:01.083Z,48.05
2022-10-12T07:28:27.809Z,47.50
2022-10-12T07:30:54.343Z,46.74
2022-10-12T07:33:20.825Z,46.16
2022-10-12T07:36:13.481Z,45.16
2022-10-12T07:38:50.157Z,44.86
2022-10-12T07:41:27.476Z,44.70
2022-10-12T07:43:56.532Z,44.71
2022-10-12T07:46:25.223Z,45.32
2022-10-12T07:48:52.137Z,45.52
2022-10-12T07:51:19.103Z,45.77
2022-10-12T07:53:45.896Z,45.60
2022-10-12T07:56:15.276Z,45.72
2022-10-12T07:58:43.151Z,45.29
2022-10-12T08:01:10.638Z,46.05
2022-10-12T08:03:37.350Z,45.97
2022-10-12T08:06:15.797Z,47.56
2022-10-12T08:08:42.331Z,45.75
2022-10-12T08:11:10.229Z,46.09
2022-10-12T08:13:37.639Z,44.89
2022-10-12T08:16:06.247Z,43.90
2022-10-12T08:18:33.094Z,42.78
2022-10-12T08:20:59.566Z,42.19
2022-10-12T08:23:26.105Z,41.30
2022-10-12T08:25:54.090Z,40.56
2022-10-12T08:28:20.696Z,39.75
2022-10-12T08:30:47.252Z,39.67
2022-10-12T08:33:15.134Z,39.22
2022-10-12T08:35:42.311Z,38.90
2022-10-12T08:38:11.327Z,38.31
2022-10-12T08:41:00.908Z,38.34
2022-10-12T08:43:33.373Z,39.08
2022-10-12T08:46:02.747Z,38.51
2022-10-12T08:48:32.174Z,38.28
2022-10-12T08:51:04.500Z,37.58
2022-10-12T08:53:35.739Z,37.07
2022-10-12T08:56:02.243Z,36.33
2022-10-12T08:58:35.894Z,36.54
2022-10-12T09:01:16.499Z,36.51
2022-10-12T09:04:28.290Z,35.58
2022-10-12T09:07:00.814Z,34.85
2022-10-12T09:10:09.823Z,33.54
2022-10-12T09:12:36.862Z,33.58
2022-10-12T09:15:09.806Z,33.08
2022-10-12T09:17:40.903Z,32.41
2022-10-12T09:20:17.738Z,31.71
2022-10-12T09:22:49.003Z,30.56
2022-10-12T09:25:17.147Z,30.04
2022-10-12T09:27:46.641Z,29.91
2022-10-12T09:30:15.487Z,29.58
2022-10-12T09:32:59.098Z,26.21
2022-10-12T09:35:25.691Z,19.77
2022-10-12T09:37:54.426Z,16.22
2022-10-12T09:40:33.196Z,14.23
2022-10-12T09:43:01.153Z,14.19
2022-10-12T09:45:31.056Z,12.14
2022-10-12T09:48:20.188Z,10.70
2022-10-12T09:50:50.850Z,11.95
2022-10-12T09:53:35.435Z,13.25
2022-10-12T09:56:10.765Z,14.81
2022-10-12T09:58:43.593Z,16.57
2022-10-12T10:01:34.870Z,17.12
2022-10-12T10:04:15.977Z,17.21
2022-10-12T10:06:45.090Z,14.30
2022-10-12T10:09:33.442Z,12.98
2022-10-12T10:12:24.367Z,14.37
2022-10-12T10:14:55.120Z,12.64
2022-10-12T10:17:33.818Z,14.12
2022-10-12T10:20:04.044Z,15.47
2022-10-12T10:22:30.780Z,16.03
2022-10-12T10:25:00.532Z,15.05
2022-10-12T10:27:32.672Z,13.56
2022-10-12T10:30:35.084Z,11.40
2022-10-12T10:33:15.978Z,10.61
2022-10-12T10:35:54.787Z,9.39
2022-10-12T10:38:21.325Z,8.01
2022-10-12T10:40:56.969Z,6.90
2022-10-12T10:43:31.809Z,6.16
2022-10-12T10:46:01.120Z,5.61
2022-10-12T10:48:38.396Z,5.11
2022-10-12T10:51:05.782Z,5.65
2022-10-12T10:53:43.634Z,5.57
2022-10-12T10:56:31.175Z,5.37
2022-10-12T10:59:05.332Z,5.51
2022-10-12T11:01:39.139Z,6.08
2022-10-12T11:04:16.822Z,5.84
2022-10-12T11:06:52.583Z,5.51
2022-10-12T11:09:42.521Z,9.36
2022-10-12T11:12:14.556Z,9.66
2022-10-12T11:14:44.969Z,9.50
2022-10-12T11:17:50.124Z,11.06
2022-10-12T11:20:37.923Z,11.46
2022-10-12T11:23:27.512Z,10.79
2022-10-12T11:26:18.665Z,10.74
2022-10-12T11:28:45.546Z,10.96
2022-10-12T11:31:24.642Z,11.78
2022-10-12T11:33:52.447Z,12.11
2022-10-12T11:36:22.600Z,12.18
2022-10-12T11:39:05.912Z,13.17
2022-10-12T11:42:03.222Z,12.39
2022-10-12T11:44:42.280Z,12.50
2022-10-12T11:47:20.678Z,12.42
2022-10-12T11:50:21.152Z,12.45
2022-10-12T11:52:50.921Z,12.97
2022-10-12T11:55:51.668Z,14.81
2022-10-12T11:58:59.893Z,13.03
2022-10-12T12:01:56.786Z,13.18
2022-10-12T12:04:42.236Z,12.81
2022-10-12T12:07:47.714Z,15.47
2022-10-12T12:10:26.544Z,17.88
2022-10-12T12:13:11.203Z,21.82
2022-10-12T12:16:01.180Z,23.83
2022-10-12T12:18:34.906Z,27.26
2022-10-12T12:21:07.240Z,27.24
2022-10-12T12:23:42.609Z,29.32
2022-10-12T12:26:16.522Z,29.85
2022-10-12T12:28:51.752Z,29.37
2022-10-12T12:31:25.935Z,30.30
2022-10-12T12:34:01.734Z,30.75
2022-10-12T12:36:30.651Z,31.54
2022-10-12T12:38:57.652Z,30.89
2022-10-12T12:41:54.038Z,32.89
2022-10-12T12:44:42.382Z,32.33
2022-10-12T12:47:43.491Z,32.77
2022-10-12T12:50:00.870Z,31.97
2022-10-12T12:52:29.877Z,32.21
2022-10-12T12:55:14.508Z,32.94
2022-10-12T12:57:47.251Z,32.29
2022-10-12T13:00:26.691Z,32.92
2022-10-12T13:03:05.236Z,35.31
2022-10-12T13:06:12.967Z,35.17
2022-10-12T13:08:48.543Z,35.19
2022-10-12T13:11:27.779Z,34.98
2022-10-12T13:14:06.407Z,34.50
2022-10-12T13:17:29.977Z,34.11
2022-10-12T13:19:25.687Z,35.42
2022-10-12T13:21:54.840Z,35.93
2022-10-12T13:24:28.006Z,34.86
2022-10-12T13:26:57.336Z,33.56
2022-10-12T13:29:36.404Z,33.79
2022-10-12T13:32:07.363Z,32.68
2022-10-12T13:34:42.305Z,32.00
2022-10-12T13:37:14.404Z,32.24
2022-10-12T13:39:44.776Z,32.39
2022-10-12T13:42:15.690Z,32.51
2022-10-12T13:44:42.466Z,31.86
2022-10-12T13:47:29.752Z,31.43
2022-10-12T13:49:57.045Z,31.71
2022-10-12T13:52:32.449Z,31.57
2022-10-12T13:54:59.975Z,31.97
2022-10-12T13:57:42.093Z,33.56
2022-10-12T14:00:10.066Z,34.04
2022-10-12T14:02:36.740Z,34.91
2022-10-12T14:05:06.312Z,36.35
2022-10-12T14:07:35.759Z,36.97
2022-10-12T14:10:06.760Z,37.75
2022-10-12T14:12:35.796Z,37.16
2022-10-12T14:15:03.064Z,36.81
2022-10-12T14:17:29.850Z,37.44
2022-10-12T14:19:59.724Z,37.54
2022-10-12T14:22:29.026Z,38.44
2022-10-12T14:25:23.759Z,37.15
2022-10-12T14:28:01.367Z,37.65
2022-10-12T14:30:34.863Z,38.33
2022-10-12T14:33:16.623Z,38.21
2022-10-12T14:35:47.860Z,38.73
2022-10-12T14:38:37.577Z,38.89
2022-10-12T14:41:38.999Z,38.87
2022-10-12T14:44:17.711Z,39.51
2022-10-12T14:46:50.399Z,39.51
2022-10-12T14:49:25.844Z,39.59
2022-10-12T14:51:54.262Z,39.09
2022-10-12T14:54:21.506Z,38.61
2022-10-12T14:56:49.128Z,38.27
2022-10-12T14:59:15.684Z,38.28
2022-10-12T15:01:45.218Z,39.21
2022-10-12T15:04:14.211Z,39.26
2022-10-12T15:06:40.910Z,39.47
2022-10-12T15:09:09.691Z,39.95
2022-10-12T15:11:36.162Z,40.99
2022-10-12T15:14:02.631Z,39.25
2022-10-12T15:16:29.330Z,39.71
2022-10-12T15:18:55.807Z,39.39
2022-10-12T15:21:22.252Z,38.93
2022-10-12T15:23:49.309Z,40.65
2022-10-12T15:26:17.394Z,38.83
2022-10-12T15:28:44.567Z,38.98
2022-10-12T15:31:17.609Z,38.42
2022-10-12T15:33:45.028Z,38.85
2022-10-12T15:36:11.599Z,40.38
2022-10-12T15:38:38.453Z,38.92
2022-10-12T15:41:05.046Z,39.21
2022-10-12T15:43:33.673Z,40.06
2022-10-12T15:46:02.396Z,39.39
2022-10-12T15:48:29.037Z,41.02
2022-10-12T15:50:55.529Z,41.08
2022-10-12T15:53:25.805Z,40.36
2022-10-12T15:55:55.813Z,40.36
2022-10-12T15:58:22.809Z,40.47
2022-10-12T16:00:49.621Z,41.89
2022-10-12T16:03:24.553Z,42.66
2022-10-12T16:05:51.983Z,42.81
2022-10-12T16:08:18.467Z,43.95
2022-10-12T16:10:46.109Z,44.41
2022-10-12T16:13:13.595Z,43.89
2022-10-12T16:15:40.753Z,44.09
2022-10-12T16:18:07.643Z,44.22
2022-10-12T16:20:38.910Z,44.78
2022-10-12T16:23:08.760Z,45.37
2022-10-12T16:25:35.996Z,45.66
2022-10-12T16:28:02.562Z,44.99
2022-10-12T16:30:29.138Z,45.81
2022-10-12T16:32:55.622Z,45.93
2022-10-12T16:35:22.319Z,45.40
2022-10-12T16:37:48.847Z,46.70
2022-10-12T16:40:15.784Z,45.91
2022-10-12T16:42:42.341Z,46.45
2022-10-12T16:45:09.265Z,46.30
2022-10-12T16:47:40.429Z,46.14
2022-10-12T16:50:10.111Z,45.56
2022-10-12T16:52:36.739Z,46.45
2022-10-12T16:55:04.515Z,45.88
2022-10-12T16:57:31.032Z,46.05
2022-10-12T16:59:58.630Z,46.05
2022-10-12T17:02:27.223Z,46.60
2022-10-12T17:04:53.838Z,46.55
2022-10-12T17:07:20.368Z,46.02
2022-10-12T17:09:46.917Z,46.42
2022-10-12T17:12:13.761Z,46.65
2022-10-12T17:14:40.525Z,46.39
2022-10-12T17:17:07.085Z,47.10
2022-10-12T17:19:37.158Z,47.85
2022-10-12T17:22:06.315Z,47.57
2022-10-12T17:24:34.868Z,48.74
2022-10-12T17:27:01.875Z,48.67
2022-10-12T17:29:29.838Z,48.56
2022-10-12T17:31:57.498Z,48.99
2022-10-12T17:34:35.843Z,48.27
2022-10-12T17:37:03.643Z,49.12
2022-10-12T17:39:32.445Z,49.09
2022-10-12T17:41:59.160Z,49.15
2022-10-12T17:44:25.750Z,49.49
2022-10-12T17:46:52.570Z,49.48
2022-10-12T17:49:24.442Z,49.58
2022-10-12T17:51:51.585Z,49.42
2022-10-12T17:54:19.243Z,48.99
2022-10-12T17:56:45.813Z,49.26
2022-10-12T17:59:15.732Z,49.37
2022-10-12T18:01:42.247Z,49.76
2022-10-12T18:04:10.999Z,50.02
2022-10-12T18:06:38.024Z,49.74
2022-10-12T18:09:05.734Z,50.07
2022-10-12T18:11:33.811Z,50.60
2022-10-12T18:14:00.410Z,50.95
2022-10-12T18:16:32.902Z,50.66
2022-10-12T18:19:01.199Z,50.74
2022-10-12T18:21:29.630Z,51.00
2022-10-12T18:23:56.466Z,50.79
2022-10-12T18:26:23.112Z,50.69
2022-10-12T18:28:50.319Z,50.43
2022-10-12T18:31:25.032Z,51.12
2022-10-12T18:33:52.866Z,51.80
2022-10-12T18:36:20.122Z,51.12
2022-10-12T18:38:46.786Z,50.95
2022-10-12T18:41:17.143Z,50.97
2022-10-12T18:43:43.635Z,51.66
2022-10-12T18:46:12.441Z,51.72
2022-10-12T18:48:39.221Z,51.46
2022-10-12T18:51:17.859Z,51.57
2022-10-12T18:53:46.287Z,52.24
2022-10-12T18:56:13.713Z,51.73
2022-10-12T18:58:41.943Z,51.76
2022-10-12T19:01:11.644Z,51.63
2022-10-12T19:03:38.905Z,52.09
2022-10-12T19:06:13.663Z,52.00
2022-10-12T19:08:40.582Z,51.64
2022-10-12T19:11:08.261Z,51.47
2022-10-12T19:13:39.074Z,52.33
2022-10-12T19:16:06.658Z,52.31
2022-10-12T19:18:33.478Z,52.06
2022-10-12T19:21:08.740Z,52.83
2022-10-12T19:23:35.594Z,53.21
2022-10-12T19:26:04.615Z,52.65
2022-10-12T19:28:33.862Z,52.58
2022-10-12T19:31:01.346Z,52.38
2022-10-12T19:33:29.047Z,52.43
2022-10-12T19:35:58.397Z,52.36
2022-10-12T19:38:25.040Z,52.39
2022-10-12T19:40:51.950Z,52.30
2022-10-12T19:43:18.511Z,52.02
2022-10-12T19:45:45.024Z,52.30
2022-10-12T19:48:11.897Z,52.71
2022-10-12T19:50:38.631Z,52.72
2022-10-12T19:53:05.798Z,53.32
2022-10-12T19:55:33.980Z,53.52
2022-10-12T19:58:03.261Z,53.48
2022-10-12T20:00:32.647Z,53.09
2022-10-12T20:02:59.107Z,53.20
2022-10-12T20:05:25.745Z,53.25
2022-10-12T20:07:52.364Z,53.27
2022-10-12T20:10:19.011Z,53.18
2022-10-12T20:12:45.661Z,53.00
2022-10-12T20:15:12.619Z,53.05
2022-10-12T20:17:39.317Z,52.74
2022-10-12T20:20:06.754Z,52.58
2022-10-12T20:22:33.930Z,52.69
2022-10-12T20:25:00.955Z,52.89
2022-10-12T20:27:27.608Z,53.23
2022-10-12T20:29:54.354Z,52.97
2022-10-12T20:32:20.987Z,52.80
2022-10-12T20:34:52.120Z,52.43
2022-10-12T20:37:21.506Z,52.17
2022-10-12T20:39:51.887Z,52.16
2022-10-12T20:42:21.915Z,52.48
2022-10-12T20:44:49.419Z,52.45
2022-10-12T20:47:16.153Z,52.90
2022-10-12T20:49:42.743Z,53.62
2022-10-12T20:52:09.580Z,53.16
2022-10-12T20:54:37.020Z,53.15
2022-10-12T20:57:04.919Z,52.75
2022-10-12T20:59:31.623Z,52.89
2022-10-12T21:01:59.165Z,52.10
2022-10-12T21:04:26.234Z,52.27
2022-10-12T21:06:53.179Z,52.22
2022-10-12T21:09:20.163Z,52.07
2022-10-12T21:11:46.738Z,52.34
2022-10-12T21:14:13.684Z,52.25
2022-10-12T21:16:40.249Z,52.10
2022-10-12T21:19:06.690Z,53.42
2022-10-12T21:21:33.111Z,53.01
2022-10-12T21:24:00.738Z,52.85
2022-10-12T21:26:29.642Z,53.33
2022-10-12T21:28:56.323Z,52.94
2022-10-12T21:31:25.179Z,53.24
2022-10-12T21:33:53.695Z,53.49
2022-10-12T21:36:22.491Z,53.17
2022-10-12T21:38:50.214Z,52.84
2022-10-12T21:41:19.126Z,52.59
2022-10-12T21:43:46.181Z,53.77
2022-10-12T21:46:15.755Z,53.49
2022-10-12T21:48:42.713Z,54.35
2022-10-12T21:51:09.676Z,55.38
2022-10-12T21:53:37.254Z,54.81
2022-10-12T21:56:14.244Z,54.57
2022-10-12T21:58:40.829Z,55.04
2022-10-12T22:01:09.807Z,55.92
2022-10-12T22:03:36.834Z,55.73
2022-10-12T22:06:03.991Z,56.27
2022-10-12T22:08:30.706Z,56.30
2022-10-12T22:10:57.360Z,56.00
2022-10-12T22:13:23.899Z,55.63
2022-10-12T22:16:04.063Z,55.44
2022-10-12T22:18:30.537Z,54.56
2022-10-12T22:20:57.000Z,54.40
2022-10-12T22:23:23.689Z,54.26
2022-10-12T22:25:50.544Z,55.75
2022-10-12T22:28:17.258Z,56.85
2022-10-12T22:30:43.712Z,57.75
2022-10-12T22:33:10.195Z,56.61
2022-10-12T22:35:36.723Z,56.63
2022-10-12T22:38:03.214Z,56.66
2022-10-12T22:40:29.695Z,59.81
2022-10-12T22:42:56.170Z,59.06
2022-10-12T22:45:28.032Z,57.93
2022-10-12T22:47:54.811Z,57.88
2022-10-12T22:50:21.294Z,57.09
2022-10-12T22:52:47.776Z,60.33
2022-10-12T22:55:14.374Z,58.50
2022-10-12T22:57:40.804Z,57.92
2022-10-12T23:00:08.031Z,57.15
2022-10-12T23:02:34.511Z,57.69
2022-10-12T23:05:01.005Z,58.37
2022-10-12T23:07:27.473Z,59.04
2022-10-12T23:09:53.909Z,62.14
2022-10-12T23:12:20.905Z,62.38
2022-10-12T23:14:47.566Z,61.65
2022-10-12T23:17:14.042Z,60.33
2022-10-12T23:19:40.610Z,59.24
2022-10-12T23:22:08.130Z,58.92
2022-10-12T23:24:34.574Z,59.16
2022-10-12T23:27:01.073Z,59.91
2022-10-12T23:29:27.600Z,62.40
2022-10-12T23:31:54.083Z,61.63
2022-10-12T23:34:20.594Z,60.27
2022-10-12T23:36:47.077Z,61.25
2022-10-12T23:39:16.823Z,60.36
2022-10-12T23:41:43.350Z,59.77
2022-10-12T23:44:09.812Z,59.33
2022-10-12T23:46:36.273Z,59.73
2022-10-12T23:49:02.790Z,61.76
2022-10-12T23:51:29.262Z,60.63
2022-10-12T23:53:55.896Z,62.77
2022-10-12T23:56:22.389Z,61.90
2022-10-12T23:58:49.007Z,62.02
